sensor_id;sensor_type;location;lat;lon;timestamp;P1;durP1;ratioP1;P2;durP2;ratioP2
58581;SDS011;44361;51.476;5.700;2022-09-16T00:01:13;10.48;;;1.80;;
58581;SDS011;44361;51.476;5.700;2022-09-16T00:03:40;10.77;;;1.75;;
58581;SDS011;44361;51.476;5.700;2022-09-16T00:06:11;8.40;;;2.10;;
58581;SDS011;44361;51.476;5.700;2022-09-16T00:08:43;9.05;;;1.70;;
58581;SDS011;44361;51.476;5.700;2022-09-16T00:11:09;8.00;;;2.25;;
58581;SDS011;44361;51.476;5.700;2022-09-16T00:13:35;6.78;;;2.00;;
58581;SDS011;44361;51.476;5.700;2022-09-16T00:16:01;10.73;;;2.05;;
58581;SDS011;44361;51.476;5.700;2022-09-16T00:18:35;6.15;;;2.08;;
58581;SDS011;44361;51.476;5.700;2022-09-16T00:21:01;9.45;;;1.83;;
58581;SDS011;44361;51.476;5.700;2022-09-16T00:23:30;5.25;;;1.92;;
58581;SDS011;44361;51.476;5.700;2022-09-16T00:25:56;7.63;;;2.22;;
58581;SDS011;44361;51.476;5.700;2022-09-16T00:28:21;6.15;;;1.95;;
58581;SDS011;44361;51.476;5.700;2022-09-16T00:30:48;5.32;;;2.00;;
58581;SDS011;44361;51.476;5.700;2022-09-16T00:33:14;10.52;;;2.40;;
58581;SDS011;44361;51.476;5.700;2022-09-16T00:35:40;10.38;;;1.88;;
58581;SDS011;44361;51.476;5.700;2022-09-16T00:38:06;6.22;;;1.70;;
58581;SDS011;44361;51.476;5.700;2022-09-16T00:40:31;12.48;;;1.77;;
58581;SDS011;44361;51.476;5.700;2022-09-16T00:42:58;6.00;;;1.75;;
58581;SDS011;44361;51.476;5.700;2022-09-16T00:45:24;4.95;;;1.80;;
58581;SDS011;44361;51.476;5.700;2022-09-16T00:48:02;7.53;;;1.52;;
58581;SDS011;44361;51.476;5.700;2022-09-16T00:50:39;10.77;;;2.80;;
58581;SDS011;44361;51.476;5.700;2022-09-16T00:53:14;6.97;;;1.85;;
58581;SDS011;44361;51.476;5.700;2022-09-16T00:55:42;5.10;;;2.08;;
58581;SDS011;44361;51.476;5.700;2022-09-16T00:58:10;7.03;;;2.20;;
58581;SDS011;44361;51.476;5.700;2022-09-16T01:01:00;6.28;;;2.00;;
58581;SDS011;44361;51.476;5.700;2022-09-16T01:03:29;8.13;;;1.85;;
58581;SDS011;44361;51.476;5.700;2022-09-16T01:05:56;7.35;;;2.30;;
58581;SDS011;44361;51.476;5.700;2022-09-16T01:08:22;10.32;;;1.52;;
58581;SDS011;44361;51.476;5.700;2022-09-16T01:10:48;2.33;;;1.48;;
58581;SDS011;44361;51.476;5.700;2022-09-16T01:13:14;5.75;;;1.60;;
58581;SDS011;44361;51.476;5.700;2022-09-16T01:15:44;7.45;;;1.83;;
58581;SDS011;44361;51.476;5.700;2022-09-16T01:21:37;8.52;;;1.70;;
58581;SDS011;44361;51.476;5.700;2022-09-16T01:30:11;4.82;;;1.23;;
58581;SDS011;44361;51.476;5.700;2022-09-16T01:32:52;6.22;;;1.40;;
58581;SDS011;44361;51.476;5.700;2022-09-16T01:46:42;6.78;;;3.53;;
58581;SDS011;44361;51.476;5.700;2022-09-16T01:54:24;9.88;;;5.88;;
58581;SDS011;44361;51.476;5.700;2022-09-16T02:02:54;16.25;;;5.50;;
58581;SDS011;44361;51.476;5.700;2022-09-16T02:05:36;10.18;;;4.93;;
58581;SDS011;44361;51.476;5.700;2022-09-16T02:08:08;10.68;;;5.30;;
58581;SDS011;44361;51.476;5.700;2022-09-16T02:10:55;14.48;;;5.70;;
58581;SDS011;44361;51.476;5.700;2022-09-16T02:13:33;12.57;;;5.20;;
58581;SDS011;44361;51.476;5.700;2022-09-16T02:16:07;13.02;;;5.13;;
58581;SDS011;44361;51.476;5.700;2022-09-16T02:18:38;13.77;;;5.70;;
58581;SDS011;44361;51.476;5.700;2022-09-16T02:21:07;9.95;;;4.57;;
58581;SDS011;44361;51.476;5.700;2022-09-16T02:23:38;11.63;;;4.70;;
58581;SDS011;44361;51.476;5.700;2022-09-16T02:26:09;9.65;;;4.13;;
58581;SDS011;44361;51.476;5.700;2022-09-16T02:28:40;10.20;;;3.92;;
58581;SDS011;44361;51.476;5.700;2022-09-16T02:31:09;14.48;;;4.47;;
58581;SDS011;44361;51.476;5.700;2022-09-16T02:33:57;12.27;;;4.13;;
58581;SDS011;44361;51.476;5.700;2022-09-16T02:36:27;12.77;;;4.50;;
58581;SDS011;44361;51.476;5.700;2022-09-16T02:38:55;8.10;;;4.15;;
58581;SDS011;44361;51.476;5.700;2022-09-16T02:41:25;7.97;;;3.92;;
58581;SDS011;44361;51.476;5.700;2022-09-16T02:43:51;6.85;;;4.03;;
58581;SDS011;44361;51.476;5.700;2022-09-16T02:54:12;10.32;;;4.10;;
58581;SDS011;44361;51.476;5.700;2022-09-16T02:56:50;12.15;;;4.55;;
58581;SDS011;44361;51.476;5.700;2022-09-16T02:59:18;7.20;;;3.88;;
58581;SDS011;44361;51.476;5.700;2022-09-16T03:01:45;9.30;;;3.70;;
58581;SDS011;44361;51.476;5.700;2022-09-16T03:04:12;10.63;;;3.83;;
58581;SDS011;44361;51.476;5.700;2022-09-16T03:06:39;9.40;;;3.65;;
58581;SDS011;44361;51.476;5.700;2022-09-16T03:09:06;14.43;;;4.15;;
58581;SDS011;44361;51.476;5.700;2022-09-16T03:14:06;19.45;;;3.55;;
58581;SDS011;44361;51.476;5.700;2022-09-16T03:19:54;9.95;;;3.35;;
58581;SDS011;44361;51.476;5.700;2022-09-16T03:23:10;8.48;;;2.92;;
58581;SDS011;44361;51.476;5.700;2022-09-16T03:25:53;16.23;;;3.55;;
58581;SDS011;44361;51.476;5.700;2022-09-16T03:28:38;8.40;;;2.50;;
58581;SDS011;44361;51.476;5.700;2022-09-16T03:31:24;6.07;;;2.35;;
58581;SDS011;44361;51.476;5.700;2022-09-16T03:34:03;6.38;;;1.88;;
58581;SDS011;44361;51.476;5.700;2022-09-16T03:36:31;8.13;;;1.90;;
58581;SDS011;44361;51.476;5.700;2022-09-16T03:39:00;8.52;;;1.98;;
58581;SDS011;44361;51.476;5.700;2022-09-16T03:41:27;8.65;;;1.80;;
58581;SDS011;44361;51.476;5.700;2022-09-16T03:43:56;8.63;;;1.80;;
58581;SDS011;44361;51.476;5.700;2022-09-16T03:46:22;9.15;;;1.98;;
58581;SDS011;44361;51.476;5.700;2022-09-16T03:48:49;6.30;;;2.15;;
58581;SDS011;44361;51.476;5.700;2022-09-16T03:51:14;5.95;;;1.77;;
58581;SDS011;44361;51.476;5.700;2022-09-16T03:53:40;9.07;;;1.60;;
58581;SDS011;44361;51.476;5.700;2022-09-16T03:56:06;9.90;;;1.63;;
58581;SDS011;44361;51.476;5.700;2022-09-16T03:58:31;12.80;;;1.80;;
58581;SDS011;44361;51.476;5.700;2022-09-16T04:00:57;7.35;;;1.60;;
58581;SDS011;44361;51.476;5.700;2022-09-16T04:03:22;7.32;;;1.60;;
58581;SDS011;44361;51.476;5.700;2022-09-16T04:05:54;6.15;;;1.30;;
58581;SDS011;44361;51.476;5.700;2022-09-16T04:08:21;5.93;;;1.60;;
58581;SDS011;44361;51.476;5.700;2022-09-16T04:11:00;7.35;;;1.70;;
58581;SDS011;44361;51.476;5.700;2022-09-16T04:13:28;5.07;;;1.40;;
58581;SDS011;44361;51.476;5.700;2022-09-16T04:15:54;4.25;;;1.23;;
58581;SDS011;44361;51.476;5.700;2022-09-16T04:18:19;6.38;;;1.60;;
58581;SDS011;44361;51.476;5.700;2022-09-16T04:20:45;6.03;;;1.40;;
58581;SDS011;44361;51.476;5.700;2022-09-16T04:23:10;4.45;;;1.58;;
58581;SDS011;44361;51.476;5.700;2022-09-16T04:25:36;5.28;;;1.83;;
58581;SDS011;44361;51.476;5.700;2022-09-16T04:28:01;5.47;;;1.50;;
58581;SDS011;44361;51.476;5.700;2022-09-16T04:30:27;4.95;;;1.60;;
58581;SDS011;44361;51.476;5.700;2022-09-16T04:32:53;5.63;;;1.33;;
58581;SDS011;44361;51.476;5.700;2022-09-16T04:35:20;3.38;;;1.55;;
58581;SDS011;44361;51.476;5.700;2022-09-16T04:37:46;7.65;;;1.60;;
58581;SDS011;44361;51.476;5.700;2022-09-16T04:40:12;9.43;;;2.00;;
58581;SDS011;44361;51.476;5.700;2022-09-16T04:42:38;6.13;;;1.70;;
58581;SDS011;44361;51.476;5.700;2022-09-16T04:45:03;10.32;;;2.50;;
58581;SDS011;44361;51.476;5.700;2022-09-16T04:47:30;7.53;;;1.83;;
58581;SDS011;44361;51.476;5.700;2022-09-16T04:49:55;5.78;;;1.67;;
58581;SDS011;44361;51.476;5.700;2022-09-16T04:52:21;5.00;;;1.58;;
58581;SDS011;44361;51.476;5.700;2022-09-16T04:54:46;3.95;;;1.92;;
58581;SDS011;44361;51.476;5.700;2022-09-16T04:57:12;2.95;;;1.27;;
58581;SDS011;44361;51.476;5.700;2022-09-16T04:59:37;6.60;;;1.60;;
58581;SDS011;44361;51.476;5.700;2022-09-16T05:02:03;2.95;;;1.15;;
58581;SDS011;44361;51.476;5.700;2022-09-16T05:04:28;8.20;;;1.92;;
58581;SDS011;44361;51.476;5.700;2022-09-16T05:06:54;6.18;;;1.63;;
58581;SDS011;44361;51.476;5.700;2022-09-16T05:09:20;8.18;;;1.58;;
58581;SDS011;44361;51.476;5.700;2022-09-16T05:11:46;6.30;;;1.50;;
58581;SDS011;44361;51.476;5.700;2022-09-16T05:14:13;9.07;;;1.30;;
58581;SDS011;44361;51.476;5.700;2022-09-16T05:16:40;3.85;;;1.52;;
58581;SDS011;44361;51.476;5.700;2022-09-16T05:19:05;8.60;;;1.38;;
58581;SDS011;44361;51.476;5.700;2022-09-16T05:21:35;9.38;;;1.75;;
58581;SDS011;44361;51.476;5.700;2022-09-16T05:24:03;8.80;;;1.45;;
58581;SDS011;44361;51.476;5.700;2022-09-16T05:26:34;3.63;;;1.50;;
58581;SDS011;44361;51.476;5.700;2022-09-16T05:29:02;5.38;;;1.50;;
58581;SDS011;44361;51.476;5.700;2022-09-16T05:31:31;3.95;;;1.30;;
58581;SDS011;44361;51.476;5.700;2022-09-16T05:34:00;4.35;;;1.20;;
58581;SDS011;44361;51.476;5.700;2022-09-16T05:36:28;8.27;;;1.80;;
58581;SDS011;44361;51.476;5.700;2022-09-16T05:38:55;4.43;;;1.35;;
58581;SDS011;44361;51.476;5.700;2022-09-16T05:41:21;5.40;;;1.20;;
58581;SDS011;44361;51.476;5.700;2022-09-16T05:43:47;7.00;;;1.90;;
58581;SDS011;44361;51.476;5.700;2022-09-16T05:46:20;3.60;;;1.50;;
58581;SDS011;44361;51.476;5.700;2022-09-16T05:48:46;7.85;;;1.90;;
58581;SDS011;44361;51.476;5.700;2022-09-16T05:51:14;7.85;;;2.17;;
58581;SDS011;44361;51.476;5.700;2022-09-16T05:53:40;5.68;;;1.23;;
58581;SDS011;44361;51.476;5.700;2022-09-16T05:56:08;4.57;;;1.27;;
58581;SDS011;44361;51.476;5.700;2022-09-16T05:58:35;3.17;;;1.15;;
58581;SDS011;44361;51.476;5.700;2022-09-16T06:01:02;3.30;;;1.00;;
58581;SDS011;44361;51.476;5.700;2022-09-16T06:03:30;8.00;;;1.20;;
58581;SDS011;44361;51.476;5.700;2022-09-16T06:06:00;5.55;;;1.30;;
58581;SDS011;44361;51.476;5.700;2022-09-16T06:08:27;5.70;;;1.70;;
58581;SDS011;44361;51.476;5.700;2022-09-16T06:10:54;3.97;;;1.05;;
58581;SDS011;44361;51.476;5.700;2022-09-16T06:13:20;7.28;;;1.00;;
58581;SDS011;44361;51.476;5.700;2022-09-16T06:15:49;4.88;;;1.13;;
58581;SDS011;44361;51.476;5.700;2022-09-16T06:18:16;4.40;;;0.77;;
58581;SDS011;44361;51.476;5.700;2022-09-16T06:20:43;5.07;;;1.25;;
58581;SDS011;44361;51.476;5.700;2022-09-16T06:23:09;4.93;;;1.25;;
58581;SDS011;44361;51.476;5.700;2022-09-16T06:25:35;4.32;;;0.85;;
58581;SDS011;44361;51.476;5.700;2022-09-16T06:28:01;3.08;;;0.95;;
58581;SDS011;44361;51.476;5.700;2022-09-16T06:30:27;6.78;;;1.08;;
58581;SDS011;44361;51.476;5.700;2022-09-16T06:32:53;6.43;;;1.40;;
58581;SDS011;44361;51.476;5.700;2022-09-16T06:35:19;4.80;;;0.90;;
58581;SDS011;44361;51.476;5.700;2022-09-16T06:37:44;5.30;;;1.27;;
58581;SDS011;44361;51.476;5.700;2022-09-16T06:40:10;7.45;;;1.10;;
58581;SDS011;44361;51.476;5.700;2022-09-16T06:42:35;5.22;;;0.73;;
58581;SDS011;44361;51.476;5.700;2022-09-16T06:45:01;7.55;;;1.60;;
58581;SDS011;44361;51.476;5.700;2022-09-16T06:47:28;3.65;;;1.02;;
58581;SDS011;44361;51.476;5.700;2022-09-16T06:49:56;5.57;;;1.30;;
58581;SDS011;44361;51.476;5.700;2022-09-16T06:52:21;5.90;;;1.20;;
58581;SDS011;44361;51.476;5.700;2022-09-16T06:54:47;5.28;;;1.50;;
58581;SDS011;44361;51.476;5.700;2022-09-16T06:57:12;2.33;;;0.90;;
58581;SDS011;44361;51.476;5.700;2022-09-16T06:59:38;1.20;;;0.50;;
58581;SDS011;44361;51.476;5.700;2022-09-16T07:02:04;3.97;;;0.73;;
58581;SDS011;44361;51.476;5.700;2022-09-16T07:04:29;4.68;;;0.60;;
58581;SDS011;44361;51.476;5.700;2022-09-16T07:06:56;5.50;;;0.85;;
58581;SDS011;44361;51.476;5.700;2022-09-16T07:09:22;4.07;;;0.73;;
58581;SDS011;44361;51.476;5.700;2022-09-16T07:11:48;2.58;;;0.82;;
58581;SDS011;44361;51.476;5.700;2022-09-16T07:14:13;3.45;;;0.60;;
58581;SDS011;44361;51.476;5.700;2022-09-16T07:16:39;3.22;;;0.60;;
58581;SDS011;44361;51.476;5.700;2022-09-16T07:19:04;2.63;;;0.70;;
58581;SDS011;44361;51.476;5.700;2022-09-16T07:21:30;3.22;;;0.60;;
58581;SDS011;44361;51.476;5.700;2022-09-16T07:23:57;3.17;;;0.77;;
58581;SDS011;44361;51.476;5.700;2022-09-16T07:26:25;3.90;;;0.60;;
58581;SDS011;44361;51.476;5.700;2022-09-16T07:28:53;2.35;;;0.52;;
58581;SDS011;44361;51.476;5.700;2022-09-16T07:31:20;4.72;;;0.90;;
58581;SDS011;44361;51.476;5.700;2022-09-16T07:33:49;2.40;;;0.52;;
58581;SDS011;44361;51.476;5.700;2022-09-16T07:36:17;3.03;;;0.40;;
58581;SDS011;44361;51.476;5.700;2022-09-16T07:38:45;5.22;;;0.60;;
58581;SDS011;44361;51.476;5.700;2022-09-16T07:41:12;3.20;;;0.50;;
58581;SDS011;44361;51.476;5.700;2022-09-16T07:43:40;3.65;;;0.50;;
58581;SDS011;44361;51.476;5.700;2022-09-16T07:46:06;3.60;;;0.35;;
58581;SDS011;44361;51.476;5.700;2022-09-16T07:48:34;9.65;;;0.70;;
58581;SDS011;44361;51.476;5.700;2022-09-16T07:51:01;3.28;;;0.88;;
58581;SDS011;44361;51.476;5.700;2022-09-16T07:53:29;3.67;;;0.80;;
58581;SDS011;44361;51.476;5.700;2022-09-16T07:55:55;3.83;;;0.73;;
58581;SDS011;44361;51.476;5.700;2022-09-16T07:58:28;5.00;;;0.65;;
58581;SDS011;44361;51.476;5.700;2022-09-16T08:00:54;1.05;;;0.32;;
58581;SDS011;44361;51.476;5.700;2022-09-16T08:03:20;4.85;;;0.65;;
58581;SDS011;44361;51.476;5.700;2022-09-16T08:05:46;0.98;;;0.50;;
58581;SDS011;44361;51.476;5.700;2022-09-16T08:08:11;4.90;;;0.68;;
58581;SDS011;44361;51.476;5.700;2022-09-16T08:10:37;3.13;;;0.77;;
58581;SDS011;44361;51.476;5.700;2022-09-16T08:13:03;2.15;;;0.68;;
58581;SDS011;44361;51.476;5.700;2022-09-16T08:15:30;6.80;;;0.73;;
58581;SDS011;44361;51.476;5.700;2022-09-16T08:17:55;3.85;;;0.60;;
58581;SDS011;44361;51.476;5.700;2022-09-16T08:20:21;1.95;;;0.60;;
58581;SDS011;44361;51.476;5.700;2022-09-16T08:22:48;2.00;;;0.47;;
58581;SDS011;44361;51.476;5.700;2022-09-16T08:25:13;5.88;;;0.88;;
58581;SDS011;44361;51.476;5.700;2022-09-16T08:27:39;2.20;;;0.75;;
58581;SDS011;44361;51.476;5.700;2022-09-16T08:30:04;3.08;;;0.70;;
58581;SDS011;44361;51.476;5.700;2022-09-16T08:32:30;5.28;;;1.00;;
58581;SDS011;44361;51.476;5.700;2022-09-16T08:34:56;5.60;;;0.80;;
58581;SDS011;44361;51.476;5.700;2022-09-16T08:37:21;5.63;;;1.00;;
58581;SDS011;44361;51.476;5.700;2022-09-16T08:39:47;5.95;;;0.93;;
58581;SDS011;44361;51.476;5.700;2022-09-16T08:44:51;3.33;;;0.82;;
58581;SDS011;44361;51.476;5.700;2022-09-16T08:49:55;3.42;;;0.52;;
58581;SDS011;44361;51.476;5.700;2022-09-16T08:55:00;2.80;;;0.60;;
58581;SDS011;44361;51.476;5.700;2022-09-16T09:00:00;1.27;;;0.50;;
58581;SDS011;44361;51.476;5.700;2022-09-16T09:05:15;7.65;;;1.08;;
58581;SDS011;44361;51.476;5.700;2022-09-16T09:15:39;3.85;;;0.63;;
58581;SDS011;44361;51.476;5.700;2022-09-16T09:26:21;2.92;;;0.60;;
58581;SDS011;44361;51.476;5.700;2022-09-16T09:35:01;1.60;;;0.50;;
58581;SDS011;44361;51.476;5.700;2022-09-16T09:38:34;1.35;;;0.50;;
58581;SDS011;44361;51.476;5.700;2022-09-16T09:45:42;3.15;;;0.60;;
58581;SDS011;44361;51.476;5.700;2022-09-16T09:48:30;3.08;;;0.55;;
58581;SDS011;44361;51.476;5.700;2022-09-16T09:51:10;6.30;;;0.43;;
58581;SDS011;44361;51.476;5.700;2022-09-16T09:53:43;3.53;;;0.40;;
58581;SDS011;44361;51.476;5.700;2022-09-16T09:56:17;1.23;;;0.40;;
58581;SDS011;44361;51.476;5.700;2022-09-16T09:58:53;5.43;;;0.98;;
58581;SDS011;44361;51.476;5.700;2022-09-16T10:01:25;3.42;;;0.60;;
58581;SDS011;44361;51.476;5.700;2022-09-16T10:03:51;3.65;;;0.50;;
58581;SDS011;44361;51.476;5.700;2022-09-16T10:06:23;0.65;;;0.08;;
58581;SDS011;44361;51.476;5.700;2022-09-16T10:08:57;3.08;;;0.30;;
58581;SDS011;44361;51.476;5.700;2022-09-16T10:11:29;5.70;;;0.38;;
58581;SDS011;44361;51.476;5.700;2022-09-16T10:14:00;4.80;;;0.50;;
58581;SDS011;44361;51.476;5.700;2022-09-16T10:16:36;2.60;;;0.20;;
58581;SDS011;44361;51.476;5.700;2022-09-16T10:19:03;3.30;;;0.40;;
58581;SDS011;44361;51.476;5.700;2022-09-16T10:21:40;1.98;;;0.10;;
58581;SDS011;44361;51.476;5.700;2022-09-16T10:27:00;0.50;;;0.30;;
58581;SDS011;44361;51.476;5.700;2022-09-16T10:29:41;2.95;;;0.40;;
58581;SDS011;44361;51.476;5.700;2022-09-16T10:32:07;2.45;;;0.25;;
58581;SDS011;44361;51.476;5.700;2022-09-16T10:34:36;0.30;;;0.10;;
58581;SDS011;44361;51.476;5.700;2022-09-16T10:39:39;4.32;;;0.85;;
58581;SDS011;44361;51.476;5.700;2022-09-16T10:42:21;2.78;;;0.60;;
58581;SDS011;44361;51.476;5.700;2022-09-16T10:44:49;9.27;;;0.80;;
58581;SDS011;44361;51.476;5.700;2022-09-16T10:47:23;4.13;;;0.68;;
58581;SDS011;44361;51.476;5.700;2022-09-16T10:49:55;3.97;;;0.55;;
58581;SDS011;44361;51.476;5.700;2022-09-16T10:52:40;2.45;;;0.63;;
58581;SDS011;44361;51.476;5.700;2022-09-16T10:55:54;0.50;;;0.30;;
58581;SDS011;44361;51.476;5.700;2022-09-16T10:58:16;3.80;;;0.63;;
58581;SDS011;44361;51.476;5.700;2022-09-16T11:08:39;3.90;;;0.65;;
58581;SDS011;44361;51.476;5.700;2022-09-16T11:14:11;5.85;;;0.77;;
58581;SDS011;44361;51.476;5.700;2022-09-16T11:19:55;5.97;;;1.08;;
58581;SDS011;44361;51.476;5.700;2022-09-16T11:22:27;4.78;;;0.50;;
58581;SDS011;44361;51.476;5.700;2022-09-16T11:25:15;1.77;;;0.40;;
58581;SDS011;44361;51.476;5.700;2022-09-16T11:27:57;4.30;;;0.60;;
58581;SDS011;44361;51.476;5.700;2022-09-16T11:30:33;1.30;;;0.30;;
58581;SDS011;44361;51.476;5.700;2022-09-16T11:33:16;6.28;;;0.70;;
58581;SDS011;44361;51.476;5.700;2022-09-16T11:44:44;1.25;;;0.40;;
58581;SDS011;44361;51.476;5.700;2022-09-16T11:52:45;2.40;;;0.57;;
58581;SDS011;44361;51.476;5.700;2022-09-16T11:55:37;1.02;;;0.40;;
58581;SDS011;44361;51.476;5.700;2022-09-16T11:58:19;4.88;;;0.75;;
58581;SDS011;44361;51.476;5.700;2022-09-16T12:00:46;3.15;;;0.65;;
58581;SDS011;44361;51.476;5.700;2022-09-16T12:05:53;5.30;;;1.33;;
58581;SDS011;44361;51.476;5.700;2022-09-16T12:08:42;8.20;;;2.65;;
58581;SDS011;44361;51.476;5.700;2022-09-16T12:11:29;4.20;;;1.42;;
58581;SDS011;44361;51.476;5.700;2022-09-16T12:14:05;4.65;;;0.65;;
58581;SDS011;44361;51.476;5.700;2022-09-16T12:16:53;2.75;;;1.00;;
58581;SDS011;44361;51.476;5.700;2022-09-16T12:19:24;4.80;;;0.77;;
58581;SDS011;44361;51.476;5.700;2022-09-16T12:22:04;4.72;;;0.63;;
58581;SDS011;44361;51.476;5.700;2022-09-16T12:24:44;2.58;;;0.70;;
58581;SDS011;44361;51.476;5.700;2022-09-16T12:30:12;5.70;;;0.40;;
58581;SDS011;44361;51.476;5.700;2022-09-16T12:32:46;7.78;;;0.63;;
58581;SDS011;44361;51.476;5.700;2022-09-16T12:35:25;2.13;;;0.55;;
58581;SDS011;44361;51.476;5.700;2022-09-16T12:37:55;0.95;;;0.30;;
58581;SDS011;44361;51.476;5.700;2022-09-16T12:40:25;4.82;;;0.60;;
58581;SDS011;44361;51.476;5.700;2022-09-16T12:43:28;4.88;;;0.50;;
58581;SDS011;44361;51.476;5.700;2022-09-16T12:46:11;1.88;;;0.47;;
58581;SDS011;44361;51.476;5.700;2022-09-16T13:03:25;4.13;;;0.80;;
58581;SDS011;44361;51.476;5.700;2022-09-16T13:05:53;2.72;;;0.60;;
58581;SDS011;44361;51.476;5.700;2022-09-16T13:08:24;3.45;;;0.90;;
58581;SDS011;44361;51.476;5.700;2022-09-16T13:10:56;3.60;;;0.52;;
58581;SDS011;44361;51.476;5.700;2022-09-16T13:15:59;4.78;;;0.98;;
58581;SDS011;44361;51.476;5.700;2022-09-16T13:18:38;4.75;;;0.82;;
58581;SDS011;44361;51.476;5.700;2022-09-16T13:23:51;1.73;;;0.63;;
58581;SDS011;44361;51.476;5.700;2022-09-16T13:26:51;3.30;;;1.05;;
58581;SDS011;44361;51.476;5.700;2022-09-16T13:32:27;3.17;;;0.47;;
58581;SDS011;44361;51.476;5.700;2022-09-16T13:35:03;7.05;;;1.25;;
58581;SDS011;44361;51.476;5.700;2022-09-16T13:37:51;6.40;;;0.65;;
58581;SDS011;44361;51.476;5.700;2022-09-16T13:40:23;2.40;;;0.65;;
58581;SDS011;44361;51.476;5.700;2022-09-16T13:42:50;6.68;;;0.88;;
58581;SDS011;44361;51.476;5.700;2022-09-16T13:48:16;1.58;;;0.57;;
58581;SDS011;44361;51.476;5.700;2022-09-16T13:50:45;2.00;;;0.40;;
58581;SDS011;44361;51.476;5.700;2022-09-16T13:53:19;2.50;;;0.43;;
58581;SDS011;44361;51.476;5.700;2022-09-16T13:55:50;1.20;;;0.50;;
58581;SDS011;44361;51.476;5.700;2022-09-16T13:58:24;1.05;;;0.50;;
58581;SDS011;44361;51.476;5.700;2022-09-16T14:03:35;3.58;;;0.50;;
58581;SDS011;44361;51.476;5.700;2022-09-16T14:09:00;5.32;;;0.93;;
58581;SDS011;44361;51.476;5.700;2022-09-16T14:11:47;2.17;;;0.40;;
58581;SDS011;44361;51.476;5.700;2022-09-16T14:14:21;3.83;;;0.55;;
58581;SDS011;44361;51.476;5.700;2022-09-16T14:16:49;6.30;;;0.93;;
58581;SDS011;44361;51.476;5.700;2022-09-16T14:19:17;4.45;;;0.73;;
58581;SDS011;44361;51.476;5.700;2022-09-16T14:22:32;2.03;;;0.45;;
58581;SDS011;44361;51.476;5.700;2022-09-16T14:24:40;4.10;;;0.93;;
58581;SDS011;44361;51.476;5.700;2022-09-16T14:27:20;3.90;;;0.60;;
58581;SDS011;44361;51.476;5.700;2022-09-16T14:29:58;5.80;;;0.68;;
58581;SDS011;44361;51.476;5.700;2022-09-16T14:32:32;3.33;;;0.87;;
58581;SDS011;44361;51.476;5.700;2022-09-16T14:35:00;5.68;;;0.90;;
58581;SDS011;44361;51.476;5.700;2022-09-16T14:37:32;3.88;;;0.70;;
58581;SDS011;44361;51.476;5.700;2022-09-16T14:40:18;4.25;;;0.73;;
58581;SDS011;44361;51.476;5.700;2022-09-16T14:42:46;9.50;;;1.00;;
58581;SDS011;44361;51.476;5.700;2022-09-16T14:45:16;5.80;;;0.95;;
58581;SDS011;44361;51.476;5.700;2022-09-16T14:47:41;7.20;;;0.70;;
58581;SDS011;44361;51.476;5.700;2022-09-16T14:50:10;3.67;;;0.70;;
58581;SDS011;44361;51.476;5.700;2022-09-16T14:52:39;5.30;;;0.73;;
58581;SDS011;44361;51.476;5.700;2022-09-16T14:55:47;6.13;;;0.60;;
58581;SDS011;44361;51.476;5.700;2022-09-16T14:57:55;2.08;;;0.98;;
58581;SDS011;44361;51.476;5.700;2022-09-16T15:00:24;7.47;;;0.85;;
58581;SDS011;44361;51.476;5.700;2022-09-16T15:02:59;3.00;;;0.68;;
58581;SDS011;44361;51.476;5.700;2022-09-16T15:05:34;3.78;;;0.60;;
58581;SDS011;44361;51.476;5.700;2022-09-16T15:10:50;2.90;;;0.80;;
58581;SDS011;44361;51.476;5.700;2022-09-16T15:13:18;7.25;;;1.08;;
58581;SDS011;44361;51.476;5.700;2022-09-16T15:15:50;2.25;;;0.80;;
58581;SDS011;44361;51.476;5.700;2022-09-16T15:18:30;4.15;;;0.73;;
58581;SDS011;44361;51.476;5.700;2022-09-16T15:23:26;4.65;;;0.90;;
58581;SDS011;44361;51.476;5.700;2022-09-16T15:25:57;6.65;;;1.02;;
58581;SDS011;44361;51.476;5.700;2022-09-16T15:28:30;5.60;;;0.85;;
58581;SDS011;44361;51.476;5.700;2022-09-16T15:30:56;3.55;;;0.60;;
58581;SDS011;44361;51.476;5.700;2022-09-16T15:33:22;3.42;;;0.75;;
58581;SDS011;44361;51.476;5.700;2022-09-16T15:35:50;6.03;;;0.80;;
58581;SDS011;44361;51.476;5.700;2022-09-16T15:38:19;5.30;;;0.80;;
58581;SDS011;44361;51.476;5.700;2022-09-16T15:40:46;5.47;;;1.15;;
58581;SDS011;44361;51.476;5.700;2022-09-16T15:43:14;2.72;;;0.75;;
58581;SDS011;44361;51.476;5.700;2022-09-16T15:45:42;4.13;;;1.00;;
58581;SDS011;44361;51.476;5.700;2022-09-16T15:48:12;5.90;;;1.05;;
58581;SDS011;44361;51.476;5.700;2022-09-16T15:50:52;5.80;;;0.90;;
58581;SDS011;44361;51.476;5.700;2022-09-16T15:55:55;2.83;;;0.50;;
58581;SDS011;44361;51.476;5.700;2022-09-16T16:06:09;5.00;;;0.93;;
58581;SDS011;44361;51.476;5.700;2022-09-16T16:08:39;3.15;;;0.90;;
58581;SDS011;44361;51.476;5.700;2022-09-16T16:11:14;4.35;;;0.73;;
58581;SDS011;44361;51.476;5.700;2022-09-16T16:13:41;8.15;;;1.00;;
58581;SDS011;44361;51.476;5.700;2022-09-16T16:16:07;6.20;;;0.90;;
58581;SDS011;44361;51.476;5.700;2022-09-16T16:18:34;6.35;;;1.40;;
58581;SDS011;44361;51.476;5.700;2022-09-16T16:21:09;7.13;;;1.00;;
58581;SDS011;44361;51.476;5.700;2022-09-16T16:23:39;5.55;;;0.98;;
58581;SDS011;44361;51.476;5.700;2022-09-16T16:26:05;5.75;;;0.77;;
58581;SDS011;44361;51.476;5.700;2022-09-16T16:28:33;6.13;;;1.08;;
58581;SDS011;44361;51.476;5.700;2022-09-16T16:31:13;6.45;;;0.90;;
58581;SDS011;44361;51.476;5.700;2022-09-16T16:33:41;5.75;;;0.80;;
58581;SDS011;44361;51.476;5.700;2022-09-16T16:36:12;7.03;;;0.93;;
58581;SDS011;44361;51.476;5.700;2022-09-16T16:38:38;6.55;;;0.75;;
58581;SDS011;44361;51.476;5.700;2022-09-16T16:41:04;7.30;;;0.70;;
58581;SDS011;44361;51.476;5.700;2022-09-16T16:43:31;10.27;;;0.90;;
58581;SDS011;44361;51.476;5.700;2022-09-16T16:45:57;6.57;;;1.13;;
58581;SDS011;44361;51.476;5.700;2022-09-16T16:48:23;3.60;;;0.90;;
58581;SDS011;44361;51.476;5.700;2022-09-16T16:50:57;6.47;;;1.30;;
58581;SDS011;44361;51.476;5.700;2022-09-16T16:53:25;4.93;;;1.08;;
58581;SDS011;44361;51.476;5.700;2022-09-16T16:55:51;6.28;;;1.05;;
58581;SDS011;44361;51.476;5.700;2022-09-16T16:58:17;6.35;;;1.10;;
58581;SDS011;44361;51.476;5.700;2022-09-16T17:00:43;3.45;;;1.15;;
58581;SDS011;44361;51.476;5.700;2022-09-16T17:03:09;7.10;;;1.00;;
58581;SDS011;44361;51.476;5.700;2022-09-16T17:05:35;8.10;;;1.05;;
58581;SDS011;44361;51.476;5.700;2022-09-16T17:08:00;3.30;;;0.85;;
58581;SDS011;44361;51.476;5.700;2022-09-16T17:10:26;5.70;;;0.70;;
58581;SDS011;44361;51.476;5.700;2022-09-16T17:12:52;4.70;;;1.10;;
58581;SDS011;44361;51.476;5.700;2022-09-16T17:15:18;4.85;;;0.80;;
58581;SDS011;44361;51.476;5.700;2022-09-16T17:17:43;5.55;;;1.20;;
58581;SDS011;44361;51.476;5.700;2022-09-16T17:20:09;5.53;;;1.10;;
58581;SDS011;44361;51.476;5.700;2022-09-16T17:22:34;7.00;;;1.13;;
58581;SDS011;44361;51.476;5.700;2022-09-16T17:25:00;6.35;;;1.27;;
58581;SDS011;44361;51.476;5.700;2022-09-16T17:27:25;6.28;;;1.40;;
58581;SDS011;44361;51.476;5.700;2022-09-16T17:29:51;7.97;;;1.20;;
58581;SDS011;44361;51.476;5.700;2022-09-16T17:32:17;4.40;;;0.70;;
58581;SDS011;44361;51.476;5.700;2022-09-16T17:34:43;4.78;;;1.05;;
58581;SDS011;44361;51.476;5.700;2022-09-16T17:37:09;5.70;;;1.00;;
58581;SDS011;44361;51.476;5.700;2022-09-16T17:39:34;4.53;;;0.85;;
58581;SDS011;44361;51.476;5.700;2022-09-16T17:42:00;5.65;;;0.85;;
58581;SDS011;44361;51.476;5.700;2022-09-16T17:44:26;4.57;;;1.15;;
58581;SDS011;44361;51.476;5.700;2022-09-16T17:46:51;8.65;;;0.88;;
58581;SDS011;44361;51.476;5.700;2022-09-16T17:49:18;5.38;;;0.70;;
58581;SDS011;44361;51.476;5.700;2022-09-16T17:51:46;5.55;;;0.65;;
58581;SDS011;44361;51.476;5.700;2022-09-16T17:54:12;5.88;;;0.95;;
58581;SDS011;44361;51.476;5.700;2022-09-16T17:56:38;6.43;;;0.82;;